createdAt,value
2019-02-27T00:00:23.029Z,26.32
2019-02-27T00:01:23.021Z,26.37
2019-02-27T00:02:25.798Z,26.24
2019-02-27T00:03:22.966Z,26.36
2019-02-27T00:04:22.947Z,26.36
2019-02-27T00:05:22.940Z,26.32
2019-02-27T00:06:22.911Z,26.35
2019-02-27T00:07:25.710Z,26.35
2019-02-27T00:08:26.560Z,26.32
2019-02-27T00:09:22.850Z,26.35
2019-02-27T00:10:22.832Z,26.35
2019-02-27T00:11:22.794Z,26.29
2019-02-27T00:12:24.659Z,26.31
2019-02-27T00:13:27.188Z,26.29
2019-02-27T00:14:22.754Z,26.27
2019-02-27T00:15:22.715Z,26.24
2019-02-27T00:16:22.708Z,26.27
2019-02-27T00:17:23.525Z,26.29
2019-02-27T00:18:26.332Z,26.25
2019-02-27T00:19:22.647Z,26.22
2019-02-27T00:20:22.639Z,26.28
2019-02-27T00:21:22.586Z,26.21
2019-02-27T00:22:23.171Z,26.28
2019-02-27T00:23:26.381Z,26.31
2019-02-27T00:24:22.543Z,26.22
2019-02-27T00:25:22.508Z,26.25
2019-02-27T00:26:22.490Z,26.25
2019-02-27T00:27:22.475Z,26.25
2019-02-27T00:28:25.704Z,26.25
2019-02-27T00:29:22.437Z,26.25
2019-02-27T00:30:22.396Z,26.27
2019-02-27T00:31:22.395Z,26.22
2019-02-27T00:32:23.837Z,26.21
2019-02-27T00:33:28.661Z,26.2
2019-02-27T00:34:22.318Z,26.25
2019-02-27T00:35:22.299Z,26.22
2019-02-27T00:36:22.277Z,26.32
2019-02-27T00:37:24.172Z,26.24
2019-02-27T00:38:22.727Z,26.22
2019-02-27T00:39:22.215Z,26.27
2019-02-27T00:40:22.215Z,26.22
2019-02-27T00:41:22.181Z,26.24
2019-02-27T00:42:35.587Z,26.25
2019-02-27T00:43:22.133Z,26.28
2019-02-27T00:44:22.111Z,26.28
2019-02-27T00:45:22.087Z,26.21
2019-02-27T00:46:22.080Z,26.25
2019-02-27T00:47:25.324Z,26.28
2019-02-27T00:48:25.946Z,26.2
2019-02-27T00:49:22.102Z,26.29
2019-02-27T00:50:21.998Z,26.17
2019-02-27T00:51:21.980Z,26.28
2019-02-27T00:52:23.489Z,26.25
2019-02-27T00:53:26.658Z,26.18
2019-02-27T00:54:21.903Z,26.28
2019-02-27T00:55:21.894Z,26.22
2019-02-27T00:56:21.875Z,26.28
2019-02-27T00:57:25.435Z,26.2
2019-02-27T00:58:21.810Z,26.2
2019-02-27T00:59:21.804Z,26.17
2019-02-27T01:00:21.784Z,26.22
2019-02-27T01:01:21.770Z,26.22
2019-02-27T01:02:24.823Z,26.15
2019-02-27T01:03:25.916Z,26.17
2019-02-27T01:04:21.698Z,26.21
2019-02-27T01:05:21.689Z,26.21
2019-02-27T01:06:21.646Z,26.17
2019-02-27T01:07:25.174Z,26.22
2019-02-27T01:08:21.611Z,26.21
2019-02-27T01:09:21.599Z,26.2
2019-02-27T01:10:21.573Z,26.17
2019-02-27T01:11:23.631Z,26.22
2019-02-27T01:12:22.853Z,26.27
2019-02-27T01:13:21.511Z,26.17
2019-02-27T01:14:21.500Z,26.18
2019-02-27T01:15:21.460Z,26.21
2019-02-27T01:16:22.466Z,26.11
2019-02-27T01:17:25.944Z,26.11
2019-02-27T01:18:21.430Z,26.05
2019-02-27T01:19:21.382Z,26.09
2019-02-27T01:20:21.361Z,26.17
2019-02-27T01:21:23.997Z,26.11
2019-02-27T01:22:21.329Z,26.21
2019-02-27T01:23:21.303Z,26.12
2019-02-27T01:24:22.714Z,26.04
2019-02-27T01:25:25.413Z,26.09
2019-02-27T01:26:21.250Z,26.12
2019-02-27T01:27:20.979Z,26.02
2019-02-27T01:28:21.208Z,26.09
2019-02-27T01:29:23.418Z,26.21
2019-02-27T01:30:23.809Z,26.18
2019-02-27T01:31:21.912Z,26.11
2019-02-27T01:32:21.116Z,26.06
2019-02-27T01:33:21.112Z,26.18
2019-02-27T01:34:21.056Z,26.01
2019-02-27T01:35:23.576Z,26.05
2019-02-27T01:36:21.753Z,26.06
2019-02-27T01:37:21.025Z,26.05
2019-02-27T01:38:20.979Z,26.09
2019-02-27T01:39:20.957Z,26.02
2019-02-27T01:40:22.618Z,26.05
2019-02-27T01:41:24.328Z,26.06
2019-02-27T01:42:20.901Z,26.04
2019-02-27T01:43:20.874Z,26.08
2019-02-27T01:44:20.865Z,26.06
2019-02-27T01:45:25.416Z,26.08
2019-02-27T01:46:20.826Z,26.06
2019-02-27T01:47:20.790Z,26.08
2019-02-27T01:48:20.772Z,26.06
2019-02-27T01:49:21.525Z,26.06
2019-02-27T01:50:24.898Z,26.06
2019-02-27T01:51:20.711Z,26.05
2019-02-27T01:52:20.696Z,26.06
2019-02-27T01:53:20.660Z,26.05
2019-02-27T01:54:20.656Z,26.06
2019-02-27T01:55:24.357Z,26.08
2019-02-27T01:56:20.370Z,26.04
2019-02-27T01:57:20.577Z,26.09
2019-02-27T01:58:20.563Z,26.05
2019-02-27T01:59:22.288Z,26.11
2019-02-27T02:00:22.944Z,26.04
2019-02-27T02:01:20.496Z,25.94
2019-02-27T02:02:20.475Z,26.06
2019-02-27T02:03:20.464Z,26.08
2019-02-27T02:04:24.916Z,25.98
2019-02-27T02:05:20.427Z,26.06
2019-02-27T02:06:20.391Z,26.02
2019-02-27T02:07:20.379Z,26.08
2019-02-27T02:08:20.113Z,26.08
2019-02-27T02:09:23.525Z,26.05
2019-02-27T02:10:20.311Z,26.08
2019-02-27T02:11:20.287Z,26.04
2019-02-27T02:12:20.270Z,25.98
2019-02-27T02:13:20.604Z,26.06
2019-02-27T02:14:23.482Z,26.02
2019-02-27T02:15:20.204Z,25.9
2019-02-27T02:16:20.186Z,25.99
2019-02-27T02:17:20.174Z,25.99
2019-02-27T02:18:20.153Z,25.97
2019-02-27T02:19:23.637Z,25.97
2019-02-27T02:20:20.101Z,26.05
2019-02-27T02:21:20.076Z,25.94
2019-02-27T02:22:20.068Z,25.94
2019-02-27T02:23:20.034Z,25.91
2019-02-27T02:24:23.459Z,25.91
2019-02-27T02:25:19.984Z,25.93
2019-02-27T02:26:19.983Z,25.99
2019-02-27T02:27:19.956Z,25.9
2019-02-27T02:28:20.231Z,25.99
2019-02-27T02:29:22.597Z,25.97
2019-02-27T02:30:19.894Z,25.94
2019-02-27T02:31:19.885Z,25.99
2019-02-27T02:32:22.523Z,25.97
2019-02-27T02:33:19.890Z,25.94
2019-02-27T02:34:19.801Z,25.94
2019-02-27T02:35:20.753Z,25.98
2019-02-27T02:36:24.762Z,25.93
2019-02-27T02:37:19.764Z,25.94
2019-02-27T02:38:19.742Z,25.98
2019-02-27T02:39:23.123Z,25.97
2019-02-27T02:40:19.699Z,25.99
2019-02-27T02:41:19.655Z,25.93
2019-02-27T02:42:24.219Z,25.97
2019-02-27T02:43:19.626Z,25.99
2019-02-27T02:44:25.666Z,25.98
2019-02-27T02:45:19.579Z,25.94
2019-02-27T02:46:19.559Z,25.93
2019-02-27T02:47:24.847Z,25.91
2019-02-27T02:48:19.527Z,25.97
2019-02-27T02:49:19.490Z,25.93
2019-02-27T02:50:23.080Z,25.89
2019-02-27T02:51:19.467Z,25.87
2019-02-27T02:52:19.431Z,25.9
2019-02-27T02:53:24.763Z,25.89
2019-02-27T02:54:19.391Z,25.97
2019-02-27T02:55:19.416Z,25.97
2019-02-27T02:56:23.491Z,25.9
2019-02-27T02:57:19.335Z,25.98
2019-02-27T02:58:19.292Z,25.98
2019-02-27T02:59:24.236Z,25.84
2019-02-27T03:00:19.264Z,25.98
2019-02-27T03:01:20.274Z,25.99
2019-02-27T03:02:23.386Z,25.79
2019-02-27T03:03:19.195Z,25.86
2019-02-27T03:04:19.181Z,25.97
2019-02-27T03:05:23.000Z,25.93
2019-02-27T03:06:19.146Z,25.94
2019-02-27T03:07:19.142Z,25.93
2019-02-27T03:08:24.760Z,25.83
2019-02-27T03:09:19.076Z,25.91
2019-02-27T03:10:19.072Z,25.8
2019-02-27T03:11:22.948Z,25.87
2019-02-27T03:12:19.031Z,25.83
2019-02-27T03:13:18.978Z,25.77
2019-02-27T03:14:23.144Z,25.8
2019-02-27T03:15:18.964Z,25.82
2019-02-27T03:16:18.939Z,25.8
2019-02-27T03:17:22.898Z,25.89
2019-02-27T03:18:18.882Z,25.82
2019-02-27T03:19:18.878Z,25.9
2019-02-27T03:20:22.472Z,25.83
2019-02-27T03:21:18.813Z,25.77
2019-02-27T03:22:18.808Z,25.8
2019-02-27T03:23:21.005Z,25.8
2019-02-27T03:24:18.772Z,25.86
2019-02-27T03:25:18.747Z,25.84
2019-02-27T03:26:22.312Z,25.8
2019-02-27T03:27:18.696Z,25.82
2019-02-27T03:28:18.674Z,25.84
2019-02-27T03:29:21.858Z,25.86
2019-02-27T03:30:18.644Z,25.86
2019-02-27T03:31:23.367Z,25.8
2019-02-27T03:32:18.601Z,25.75
2019-02-27T03:33:29.770Z,25.83
2019-02-27T03:34:18.558Z,25.8
2019-02-27T03:35:27.385Z,25.86
2019-02-27T03:36:18.499Z,25.83
2019-02-27T03:37:19.060Z,25.82
2019-02-27T03:38:23.700Z,25.9
2019-02-27T03:39:18.447Z,25.83
2019-02-27T03:40:18.438Z,25.77
2019-02-27T03:41:22.421Z,25.8
2019-02-27T03:42:18.400Z,25.79
2019-02-27T03:43:18.348Z,25.82
2019-02-27T03:44:22.867Z,25.77
2019-02-27T03:45:18.311Z,25.77
2019-02-27T03:46:18.321Z,25.82
2019-02-27T03:47:21.631Z,25.75
2019-02-27T03:48:18.254Z,25.8
2019-02-27T03:49:18.229Z,25.71
2019-02-27T03:50:20.327Z,25.75
2019-02-27T03:51:18.219Z,25.71
2019-02-27T03:52:18.277Z,25.82
2019-02-27T03:53:18.144Z,25.72
2019-02-27T03:54:23.377Z,25.8
2019-02-27T03:55:18.107Z,25.69
2019-02-27T03:56:17.852Z,25.69
2019-02-27T03:57:23.919Z,25.68
2019-02-27T03:58:18.099Z,25.8
2019-02-27T03:59:18.025Z,25.72
2019-02-27T04:00:22.876Z,25.75
2019-02-27T04:01:17.994Z,25.82
2019-02-27T04:02:17.943Z,25.79
2019-02-27T04:03:21.936Z,25.82
2019-02-27T04:04:17.912Z,25.79
2019-02-27T04:05:17.903Z,25.75
2019-02-27T04:06:22.610Z,25.75
2019-02-27T04:07:17.607Z,25.8
2019-02-27T04:08:17.837Z,25.72
2019-02-27T04:09:23.788Z,25.8
2019-02-27T04:10:17.794Z,25.77
2019-02-27T04:11:17.773Z,25.79
2019-02-27T04:12:21.032Z,25.75
2019-02-27T04:13:17.711Z,25.69
2019-02-27T04:14:17.712Z,25.77
2019-02-27T04:15:22.610Z,25.79
2019-02-27T04:16:17.653Z,25.75
2019-02-27T04:17:17.628Z,25.65
2019-02-27T04:18:17.622Z,25.69
2019-02-27T04:19:17.598Z,25.72
2019-02-27T04:20:20.282Z,25.77
2019-02-27T04:21:17.561Z,25.75
2019-02-27T04:22:17.566Z,25.72
2019-02-27T04:23:17.659Z,25.75
2019-02-27T04:24:22.148Z,25.69
2019-02-27T04:25:17.470Z,25.69
2019-02-27T04:26:19.369Z,25.72
2019-02-27T04:27:22.732Z,25.68
2019-02-27T04:28:17.402Z,25.69
2019-02-27T04:29:17.378Z,25.72
2019-02-27T04:30:20.315Z,25.71
2019-02-27T04:31:17.676Z,25.68
2019-02-27T04:32:18.034Z,25.64
2019-02-27T04:33:22.820Z,25.68
2019-02-27T04:34:17.289Z,25.64
2019-02-27T04:35:17.254Z,25.68
2019-02-27T04:36:18.143Z,25.67
2019-02-27T04:37:17.704Z,25.67
2019-02-27T04:38:17.190Z,25.68
2019-02-27T04:39:17.170Z,25.67
2019-02-27T04:40:17.145Z,25.72
2019-02-27T04:41:20.526Z,25.65
2019-02-27T04:42:16.855Z,25.71
2019-02-27T04:43:17.086Z,25.68
2019-02-27T04:44:17.067Z,25.67
2019-02-27T04:45:17.887Z,25.65
2019-02-27T04:46:18.878Z,25.67
2019-02-27T04:47:16.998Z,25.72
2019-02-27T04:48:16.973Z,25.72
2019-02-27T04:49:16.957Z,25.71
2019-02-27T04:50:16.923Z,25.59
2019-02-27T04:51:21.642Z,25.67
2019-02-27T04:52:16.883Z,25.65
2019-02-27T04:53:16.877Z,25.64
2019-02-27T04:54:16.847Z,25.62
2019-02-27T04:55:20.194Z,25.65
2019-02-27T04:56:16.810Z,25.59
2019-02-27T04:57:16.785Z,25.64
2019-02-27T04:58:16.771Z,25.69
2019-02-27T04:59:20.820Z,25.67
2019-02-27T05:00:16.719Z,25.65
2019-02-27T05:01:16.688Z,25.65
2019-02-27T05:02:19.229Z,25.59
2019-02-27T05:03:16.649Z,25.61
2019-02-27T05:04:16.668Z,25.65
2019-02-27T05:05:16.607Z,25.67
2019-02-27T05:06:18.949Z,25.61
2019-02-27T05:07:20.042Z,25.68
2019-02-27T05:08:16.629Z,25.64
2019-02-27T05:09:17.566Z,25.62
2019-02-27T05:10:16.504Z,25.65
2019-02-27T05:11:18.925Z,25.64
2019-02-27T05:12:16.538Z,25.65
2019-02-27T05:13:20.437Z,25.59
2019-02-27T05:14:16.411Z,25.62
2019-02-27T05:15:16.408Z,25.62
2019-02-27T05:16:18.896Z,25.64
2019-02-27T05:17:16.400Z,25.64
2019-02-27T05:18:16.325Z,25.69
2019-02-27T05:19:17.663Z,25.61
2019-02-27T05:20:17.330Z,25.57
2019-02-27T05:21:18.910Z,25.56
2019-02-27T05:22:16.342Z,25.65
2019-02-27T05:23:16.228Z,25.59
2019-02-27T05:24:16.211Z,25.56
2019-02-27T05:25:17.542Z,25.67
2019-02-27T05:26:16.169Z,25.54
2019-02-27T05:27:16.142Z,25.56
2019-02-27T05:28:16.127Z,25.59
2019-02-27T05:29:18.211Z,25.57
2019-02-27T05:30:17.475Z,25.56
2019-02-27T05:31:20.769Z,25.62
2019-02-27T05:32:18.046Z,25.56
2019-02-27T05:33:16.021Z,25.59
2019-02-27T05:34:18.364Z,25.62
2019-02-27T05:35:15.974Z,25.59
2019-02-27T05:36:15.956Z,25.57
2019-02-27T05:37:15.933Z,25.62
2019-02-27T05:38:15.916Z,25.59
2019-02-27T05:39:19.398Z,25.62
2019-02-27T05:40:15.966Z,25.62
2019-02-27T05:41:15.837Z,25.57
2019-02-27T05:42:17.891Z,25.61
2019-02-27T05:43:18.641Z,25.61
2019-02-27T05:44:15.789Z,25.54
2019-02-27T05:45:15.774Z,25.56
2019-02-27T05:46:17.527Z,25.53
2019-02-27T05:47:16.632Z,25.53
2019-02-27T05:48:19.601Z,25.52
2019-02-27T05:49:15.689Z,25.5
2019-02-27T05:50:15.652Z,25.53
2019-02-27T05:51:15.679Z,25.46
2019-02-27T05:52:18.804Z,25.46
2019-02-27T05:53:15.600Z,25.44
2019-02-27T05:54:15.564Z,25.43
2019-02-27T05:55:15.767Z,25.46
2019-02-27T05:56:20.357Z,25.44
2019-02-27T05:57:15.517Z,25.46
2019-02-27T05:58:15.484Z,25.49
2019-02-27T05:59:15.456Z,25.39
2019-02-27T06:00:15.546Z,25.43
2019-02-27T06:01:15.424Z,25.52
2019-02-27T06:02:16.239Z,25.47
2019-02-27T06:03:15.850Z,25.43
2019-02-27T06:04:15.354Z,25.44
2019-02-27T06:05:15.357Z,25.5
2019-02-27T06:06:17.036Z,25.47
2019-02-27T06:07:18.601Z,25.43
2019-02-27T06:08:15.268Z,25.52
2019-02-27T06:09:15.724Z,25.37
2019-02-27T06:10:19.672Z,25.5
2019-02-27T06:11:15.268Z,25.43
2019-02-27T06:12:15.233Z,25.42
2019-02-27T06:13:18.679Z,25.42
2019-02-27T06:14:15.232Z,25.44
2019-02-27T06:15:15.115Z,25.44
2019-02-27T06:16:15.109Z,25.39
2019-02-27T06:17:17.688Z,25.46
2019-02-27T06:18:15.066Z,25.39
2019-02-27T06:19:15.030Z,25.43
2019-02-27T06:20:15.013Z,25.42
2019-02-27T06:21:18.180Z,25.42
2019-02-27T06:22:14.977Z,25.49
2019-02-27T06:23:14.943Z,25.44
2019-02-27T06:24:17.402Z,25.49
2019-02-27T06:25:21.461Z,25.47
2019-02-27T06:26:14.912Z,25.49
2019-02-27T06:27:15.039Z,25.46
2019-02-27T06:28:18.417Z,25.39
2019-02-27T06:29:14.814Z,25.43
2019-02-27T06:30:14.792Z,25.43
2019-02-27T06:31:14.780Z,25.39
2019-02-27T06:32:17.130Z,25.43
2019-02-27T06:33:17.349Z,25.44
2019-02-27T06:34:14.715Z,25.43
2019-02-27T06:35:15.669Z,25.47
2019-02-27T06:36:14.905Z,25.43
2019-02-27T06:37:17.810Z,25.43
2019-02-27T06:38:15.021Z,25.42
2019-02-27T06:39:14.926Z,25.47
2019-02-27T06:40:14.929Z,25.42
2019-02-27T06:41:18.318Z,25.44
2019-02-27T06:42:14.914Z,25.49
2019-02-27T06:43:14.517Z,25.44
2019-02-27T06:44:14.587Z,25.5
2019-02-27T06:45:17.265Z,25.44
2019-02-27T06:46:17.286Z,25.5
2019-02-27T06:47:14.881Z,25.46
2019-02-27T06:48:15.081Z,25.5
2019-02-27T06:49:17.235Z,25.47
2019-02-27T06:50:14.642Z,25.47
2019-02-27T06:51:14.742Z,25.46
2019-02-27T06:52:14.778Z,25.43
2019-02-27T06:53:17.797Z,25.38
2019-02-27T06:54:18.067Z,25.42
2019-02-27T06:55:16.083Z,25.46
2019-02-27T06:56:14.554Z,25.43
2019-02-27T06:57:14.979Z,25.42
2019-02-27T06:58:17.201Z,25.42
2019-02-27T06:59:14.496Z,25.47
2019-02-27T07:00:14.496Z,25.52
2019-02-27T07:01:18.172Z,25.35
2019-02-27T07:02:14.454Z,25.39
2019-02-27T07:03:14.094Z,25.38
2019-02-27T07:04:14.074Z,25.42
2019-02-27T07:05:18.242Z,25.37
2019-02-27T07:06:14.366Z,25.38
2019-02-27T07:07:13.779Z,25.37
2019-02-27T07:08:14.087Z,25.39
2019-02-27T07:09:16.886Z,25.42
2019-02-27T07:10:14.058Z,25.34
2019-02-27T07:11:15.739Z,25.38
2019-02-27T07:12:14.169Z,25.39
2019-02-27T07:13:13.952Z,25.35
2019-02-27T07:14:14.256Z,25.35
2019-02-27T07:15:17.462Z,25.38
2019-02-27T07:16:13.873Z,25.38
2019-02-27T07:17:13.817Z,25.43
2019-02-27T07:18:14.487Z,25.35
2019-02-27T07:19:17.897Z,25.39
2019-02-27T07:20:13.748Z,25.38
2019-02-27T07:21:13.730Z,25.42
2019-02-27T07:22:17.307Z,25.37
2019-02-27T07:23:13.663Z,25.43
2019-02-27T07:24:13.678Z,25.34
2019-02-27T07:25:13.619Z,25.38
2019-02-27T07:26:17.933Z,25.37
2019-02-27T07:27:13.570Z,25.37
2019-02-27T07:28:14.029Z,25.37
2019-02-27T07:29:21.251Z,25.39
2019-02-27T07:30:13.529Z,25.42
2019-02-27T07:31:17.219Z,25.37
2019-02-27T07:32:13.474Z,25.35
2019-02-27T07:33:13.436Z,25.38
2019-02-27T07:34:16.717Z,25.37
2019-02-27T07:35:13.446Z,25.31
2019-02-27T07:36:13.386Z,25.38
2019-02-27T07:37:17.428Z,25.37
2019-02-27T07:38:13.329Z,25.38
2019-02-27T07:39:13.322Z,25.38
2019-02-27T07:40:14.077Z,25.38
2019-02-27T07:41:17.454Z,25.38
2019-02-27T07:42:13.270Z,25.39
2019-02-27T07:43:13.289Z,25.42
2019-02-27T07:44:13.278Z,25.37
2019-02-27T07:45:16.019Z,25.43
2019-02-27T07:46:13.736Z,25.38
2019-02-27T07:47:13.179Z,25.39
2019-02-27T07:48:13.141Z,25.38
2019-02-27T07:49:12.898Z,25.44
2019-02-27T07:50:13.602Z,25.39
2019-02-27T07:51:13.054Z,25.35
2019-02-27T07:52:13.053Z,25.39
2019-02-27T07:53:17.400Z,25.38
2019-02-27T07:54:13.028Z,25.46
2019-02-27T07:55:30.008Z,25.43
2019-02-27T07:56:12.952Z,25.42
2019-02-27T07:57:12.930Z,25.43
2019-02-27T07:58:12.923Z,25.31
2019-02-27T07:59:12.888Z,25.3
2019-02-27T08:00:17.460Z,25.34
2019-02-27T08:01:12.858Z,25.3
2019-02-27T08:02:13.323Z,25.31
2019-02-27T08:03:15.736Z,25.22
2019-02-27T08:04:12.783Z,25.37
2019-02-27T08:05:12.762Z,25.25
2019-02-27T08:06:12.739Z,25.22
2019-02-27T08:07:16.965Z,25.37
2019-02-27T08:08:12.737Z,25.28
2019-02-27T08:09:12.682Z,25.37
2019-02-27T08:10:12.804Z,25.37
2019-02-27T08:11:16.001Z,25.31
2019-02-27T08:12:12.674Z,25.28
2019-02-27T08:13:12.608Z,25.35
2019-02-27T08:14:13.048Z,25.31
2019-02-27T08:15:13.650Z,25.32
2019-02-27T08:16:12.526Z,25.31
2019-02-27T08:17:22.626Z,25.34
2019-02-27T08:18:12.795Z,25.32
2019-02-27T08:19:14.699Z,25.32
2019-02-27T08:20:12.501Z,25.31
2019-02-27T08:21:12.423Z,25.32
2019-02-27T08:22:12.404Z,25.31
2019-02-27T08:23:12.700Z,25.32
2019-02-27T08:24:12.531Z,25.28
2019-02-27T08:25:12.632Z,25.28
2019-02-27T08:26:12.899Z,25.3
2019-02-27T08:27:15.042Z,25.35
2019-02-27T08:28:12.364Z,25.28
2019-02-27T08:29:12.260Z,25.28
2019-02-27T08:30:12.243Z,25.35
2019-02-27T08:31:12.205Z,25.32
2019-02-27T08:32:12.204Z,25.27
2019-02-27T08:33:15.184Z,25.27
2019-02-27T08:34:12.150Z,25.24
2019-02-27T08:35:12.136Z,25.27
2019-02-27T08:36:12.230Z,25.24
2019-02-27T08:37:12.063Z,25.35
2019-02-27T08:38:12.166Z,25.38
2019-02-27T08:39:12.076Z,25.31
2019-02-27T08:40:12.010Z,25.25
2019-02-27T08:41:12.083Z,25.32
2019-02-27T08:42:11.953Z,25.42
2019-02-27T08:43:15.622Z,25.39
2019-02-27T08:44:14.763Z,25.38
2019-02-27T08:45:26.618Z,25.42
2019-02-27T08:46:11.968Z,25.39
2019-02-27T08:47:14.815Z,25.3
2019-02-27T08:48:11.913Z,25.38
2019-02-27T08:49:11.823Z,25.39
2019-02-27T08:50:13.732Z,25.35
2019-02-27T08:51:13.827Z,25.28
2019-02-27T08:52:17.907Z,25.38
2019-02-27T08:53:11.797Z,25.42
2019-02-27T08:54:11.556Z,25.44
2019-02-27T08:55:22.418Z,25.47
2019-02-27T08:56:14.319Z,25.43
2019-02-27T08:57:11.644Z,25.44
2019-02-27T08:58:12.057Z,25.44
2019-02-27T08:59:11.613Z,25.39
2019-02-27T09:00:14.154Z,25.49
2019-02-27T09:01:11.546Z,25.5
2019-02-27T09:02:11.544Z,25.5
2019-02-27T09:03:19.926Z,25.53
2019-02-27T09:04:16.334Z,25.52
2019-02-27T09:05:11.467Z,25.52
2019-02-27T09:06:11.465Z,25.56
2019-02-27T09:07:11.461Z,25.59
2019-02-27T09:08:12.555Z,25.59
2019-02-27T09:09:14.935Z,25.62
2019-02-27T09:10:11.368Z,25.61
2019-02-27T09:11:11.729Z,25.62
2019-02-27T09:12:15.685Z,25.59
2019-02-27T09:13:11.301Z,25.56
2019-02-27T09:14:11.994Z,25.62
2019-02-27T09:15:11.267Z,25.56
2019-02-27T09:16:11.343Z,25.64
2019-02-27T09:17:11.224Z,25.65
2019-02-27T09:18:10.958Z,25.53
2019-02-27T09:19:15.629Z,25.59
2019-02-27T09:20:12.139Z,25.57
2019-02-27T09:21:11.223Z,25.64
2019-02-27T09:22:11.353Z,25.65
2019-02-27T09:23:10.887Z,25.62
2019-02-27T09:24:10.953Z,25.65
2019-02-27T09:25:11.141Z,25.65
2019-02-27T09:26:11.045Z,25.62
2019-02-27T09:27:10.991Z,25.67
2019-02-27T09:28:13.813Z,25.64
2019-02-27T09:29:10.955Z,25.65
2019-02-27T09:30:10.929Z,25.52
2019-02-27T09:31:12.164Z,25.27
2019-02-27T09:32:13.910Z,25.24
2019-02-27T09:33:11.224Z,25.06
2019-02-27T09:34:11.092Z,24.85
2019-02-27T09:35:10.834Z,24.8
2019-02-27T09:36:14.814Z,24.63
2019-02-27T09:37:10.807Z,24.54
2019-02-27T09:38:11.148Z,24.49
2019-02-27T09:39:10.820Z,24.39
2019-02-27T09:40:10.801Z,24.29
2019-02-27T09:41:14.715Z,24.19
2019-02-27T09:42:10.757Z,24.14
2019-02-27T09:43:11.707Z,24.02
2019-02-27T09:44:10.280Z,23.94
2019-02-27T09:45:15.640Z,23.89
2019-02-27T09:46:11.081Z,23.76
2019-02-27T09:47:10.624Z,23.82
2019-02-27T09:48:10.583Z,23.72
2019-02-27T09:49:11.857Z,23.62
2019-02-27T09:50:11.850Z,23.65
2019-02-27T09:51:10.471Z,23.49
2019-02-27T09:52:10.454Z,23.53
2019-02-27T09:53:10.190Z,23.47
2019-02-27T09:54:10.959Z,23.35
2019-02-27T09:55:10.387Z,23.31
2019-02-27T09:56:11.617Z,23.32
2019-02-27T09:57:10.697Z,23.23
2019-02-27T09:58:15.123Z,23.17
2019-02-27T09:59:10.582Z,23.2
2019-02-27T10:00:10.361Z,23.17
2019-02-27T10:01:10.244Z,23.23
2019-02-27T10:02:14.947Z,23.22
2019-02-27T10:03:10.204Z,23.22
2019-02-27T10:04:12.110Z,23.12
2019-02-27T10:05:10.163Z,23.19
2019-02-27T10:06:11.225Z,23.22
2019-02-27T10:07:10.138Z,23.19
2019-02-27T10:08:12.275Z,23.12
2019-02-27T10:09:10.313Z,23.2
2019-02-27T10:10:12.682Z,23.22
2019-02-27T10:11:10.013Z,23.26
2019-02-27T10:12:10.704Z,23.29
2019-02-27T10:13:10.041Z,23.34
2019-02-27T10:14:09.955Z,23.43
2019-02-27T10:15:10.235Z,23.4
2019-02-27T10:16:10.649Z,23.5
2019-02-27T10:17:13.615Z,23.53
2019-02-27T10:18:09.917Z,23.58
2019-02-27T10:19:09.866Z,23.61
2019-02-27T10:20:09.813Z,23.58
2019-02-27T10:21:14.179Z,23.57
2019-02-27T10:22:09.776Z,23.67
2019-02-27T10:23:09.746Z,23.71
2019-02-27T10:24:10.218Z,23.65
2019-02-27T10:25:11.052Z,23.71
2019-02-27T10:26:09.771Z,23.7
2019-02-27T10:27:09.756Z,23.79
2019-02-27T10:28:10.686Z,23.8
2019-02-27T10:29:10.908Z,23.85
2019-02-27T10:30:16.755Z,23.8
2019-02-27T10:31:09.599Z,23.9
2019-02-27T10:32:09.712Z,23.97
2019-02-27T10:33:11.026Z,24.02
2019-02-27T10:34:09.497Z,23.97
2019-02-27T10:35:09.556Z,24.05
2019-02-27T10:36:10.714Z,24.1
2019-02-27T10:37:12.798Z,24.12
2019-02-27T10:38:09.399Z,24.12
2019-02-27T10:39:09.426Z,24.12
2019-02-27T10:40:13.609Z,24.1
2019-02-27T10:41:10.042Z,24.07
2019-02-27T10:42:09.342Z,24.14
2019-02-27T10:43:09.778Z,24.1
2019-02-27T10:44:09.299Z,24.26
2019-02-27T10:45:12.415Z,24.13
2019-02-27T10:46:09.240Z,24.2
2019-02-27T10:47:09.207Z,24.27
2019-02-27T10:48:09.206Z,24.27
2019-02-27T10:49:09.172Z,24.42
2019-02-27T10:50:08.912Z,24.44
2019-02-27T10:51:11.992Z,24.45
2019-02-27T10:52:09.398Z,24.54
2019-02-27T10:53:09.382Z,24.57
2019-02-27T10:54:10.339Z,24.67
2019-02-27T10:55:11.190Z,24.68
2019-02-27T10:56:09.034Z,24.6
2019-02-27T10:57:10.732Z,24.64
2019-02-27T10:58:12.694Z,24.56
2019-02-27T10:59:09.039Z,24.61
2019-02-27T11:00:08.926Z,24.64
2019-02-27T11:01:08.900Z,24.6
2019-02-27T11:02:09.702Z,24.67
2019-02-27T11:03:08.864Z,24.64
2019-02-27T11:04:08.853Z,24.67
2019-02-27T11:05:08.846Z,24.68
2019-02-27T11:06:08.799Z,24.59
2019-02-27T11:07:08.795Z,24.64
2019-02-27T11:08:08.763Z,24.6
2019-02-27T11:09:09.943Z,24.67
2019-02-27T11:10:08.700Z,24.67
2019-02-27T11:11:13.104Z,24.67
2019-02-27T11:12:08.660Z,24.61
2019-02-27T11:13:11.584Z,24.6
2019-02-27T11:14:08.605Z,24.6
2019-02-27T11:15:10.667Z,24.57
2019-02-27T11:16:08.737Z,24.6
2019-02-27T11:17:08.562Z,24.61
2019-02-27T11:18:10.389Z,24.56
2019-02-27T11:19:08.510Z,24.52
2019-02-27T11:20:08.513Z,24.45
2019-02-27T11:21:08.503Z,24.38
2019-02-27T11:22:08.492Z,24.39
2019-02-27T11:23:11.492Z,24.44
2019-02-27T11:24:08.393Z,24.44
2019-02-27T11:25:08.364Z,24.47
2019-02-27T11:26:08.372Z,24.49
2019-02-27T11:27:11.567Z,24.41
2019-02-27T11:28:08.318Z,24.44
2019-02-27T11:29:08.286Z,24.47
2019-02-27T11:30:08.298Z,24.41
2019-02-27T11:31:13.151Z,24.39
2019-02-27T11:32:08.231Z,24.37
2019-02-27T11:33:07.960Z,24.42
2019-02-27T11:34:12.469Z,24.47
2019-02-27T11:35:08.177Z,24.52
2019-02-27T11:36:11.008Z,24.49
2019-02-27T11:37:12.659Z,24.47
2019-02-27T11:38:08.096Z,24.52
2019-02-27T11:39:09.549Z,24.53
2019-02-27T11:40:12.229Z,24.5
2019-02-27T11:41:08.040Z,24.5
2019-02-27T11:42:08.020Z,24.52
2019-02-27T11:43:11.434Z,24.44
2019-02-27T11:44:07.962Z,24.56
2019-02-27T11:45:07.951Z,24.53
2019-02-27T11:46:07.903Z,24.56
2019-02-27T11:47:10.875Z,24.49
2019-02-27T11:48:07.893Z,24.49
2019-02-27T11:49:08.010Z,24.54
2019-02-27T11:50:07.835Z,24.44
2019-02-27T11:51:07.816Z,24.53
2019-02-27T11:52:07.778Z,24.45
2019-02-27T11:53:07.865Z,24.56
2019-02-27T11:54:10.863Z,24.5
2019-02-27T11:55:07.719Z,24.5
2019-02-27T11:56:07.698Z,24.44
2019-02-27T11:57:07.660Z,24.5
2019-02-27T11:58:10.269Z,24.49
2019-02-27T11:59:10.245Z,24.47
2019-02-27T12:00:07.696Z,24.52
2019-02-27T12:01:07.599Z,24.53
2019-02-27T12:02:07.593Z,24.45
2019-02-27T12:03:08.570Z,24.56
2019-02-27T12:04:07.715Z,24.56
2019-02-27T12:05:07.574Z,24.49
2019-02-27T12:06:12.073Z,24.52
2019-02-27T12:07:07.465Z,24.5
2019-02-27T12:08:07.779Z,24.53
2019-02-27T12:09:07.412Z,24.57
2019-02-27T12:10:09.615Z,24.59
2019-02-27T12:11:09.669Z,24.59
2019-02-27T12:12:07.354Z,24.56
2019-02-27T12:13:07.335Z,24.59
2019-02-27T12:14:11.216Z,24.59
2019-02-27T12:15:09.760Z,24.57
2019-02-27T12:16:07.251Z,24.64
2019-02-27T12:17:07.241Z,24.6
2019-02-27T12:18:07.245Z,24.59
2019-02-27T12:19:10.865Z,24.63
2019-02-27T12:20:07.175Z,24.63
2019-02-27T12:21:07.474Z,24.61
2019-02-27T12:22:07.171Z,24.6
2019-02-27T12:23:12.097Z,24.63
2019-02-27T12:24:07.852Z,24.61
2019-02-27T12:25:07.061Z,24.61
2019-02-27T12:26:07.850Z,24.63
2019-02-27T12:27:07.330Z,24.6
2019-02-27T12:28:06.988Z,24.68
2019-02-27T12:29:07.105Z,24.57
2019-02-27T12:30:08.605Z,24.61
2019-02-27T12:31:08.059Z,24.61
2019-02-27T12:32:08.555Z,24.6
2019-02-27T12:33:06.630Z,24.57
2019-02-27T12:34:08.088Z,24.64
2019-02-27T12:35:12.915Z,24.63
2019-02-27T12:36:06.699Z,24.64
2019-02-27T12:37:15.054Z,24.63
2019-02-27T12:38:13.849Z,24.63
2019-02-27T12:39:06.784Z,24.63
2019-02-27T12:40:06.734Z,24.63
2019-02-27T12:41:06.707Z,24.57
2019-02-27T12:42:11.473Z,24.57
2019-02-27T12:43:06.435Z,24.59
2019-02-27T12:44:06.649Z,24.67
2019-02-27T12:45:06.662Z,24.67
2019-02-27T12:46:06.598Z,24.63
2019-02-27T12:47:08.008Z,24.73
2019-02-27T12:48:06.594Z,24.76
2019-02-27T12:49:06.540Z,24.77
2019-02-27T12:50:06.532Z,24.71
2019-02-27T12:51:08.959Z,24.71
2019-02-27T12:52:08.931Z,24.76
2019-02-27T12:53:06.442Z,24.73
2019-02-27T12:54:06.421Z,24.79